createdAt,value
2022-10-09T00:01:32.732Z,77.38
2022-10-09T00:03:59.911Z,76.79
2022-10-09T00:06:33.475Z,76.14
2022-10-09T00:09:04.271Z,75.87
2022-10-09T00:11:33.825Z,76.44
2022-10-09T00:14:02.622Z,77.28
2022-10-09T00:16:29.526Z,76.89
2022-10-09T00:18:57.712Z,76.34
2022-10-09T00:21:25.991Z,76.06
2022-10-09T00:23:54.772Z,76.04
2022-10-09T00:26:22.351Z,75.87
2022-10-09T00:28:49.986Z,76.10
2022-10-09T00:31:17.365Z,76.41
2022-10-09T00:33:44.249Z,77.10
2022-10-09T00:36:22.956Z,77.43
2022-10-09T00:38:50.498Z,77.36
2022-10-09T00:41:20.918Z,78.68
2022-10-09T00:43:51.319Z,77.79
2022-10-09T00:46:48.904Z,78.49
2022-10-09T00:49:28.582Z,77.21
2022-10-09T00:51:59.141Z,76.86
2022-10-09T00:54:29.493Z,77.23
2022-10-09T00:56:56.532Z,76.95
2022-10-09T00:59:32.061Z,77.58
2022-10-09T01:01:58.944Z,77.63
2022-10-09T01:04:26.200Z,77.82
2022-10-09T01:07:14.123Z,77.48
2022-10-09T01:09:55.779Z,77.37
2022-10-09T01:12:43.105Z,76.91
2022-10-09T01:15:19.725Z,76.94
2022-10-09T01:18:12.118Z,77.89
2022-10-09T01:20:48.248Z,77.70
2022-10-09T01:23:45.870Z,77.51
2022-10-09T01:26:30.620Z,77.15
2022-10-09T01:29:01.662Z,77.12
2022-10-09T01:31:31.340Z,76.90
2022-10-09T01:34:01.813Z,76.96
2022-10-09T01:36:31.308Z,77.48
2022-10-09T01:39:01.728Z,76.98
2022-10-09T01:41:29.641Z,76.91
2022-10-09T01:43:56.417Z,78.16
2022-10-09T01:46:33.419Z,77.87
2022-10-09T01:49:08.761Z,77.81
2022-10-09T01:51:45.594Z,77.81
2022-10-09T01:54:17.569Z,77.39
2022-10-09T01:56:49.045Z,76.97
2022-10-09T01:59:30.977Z,78.28
2022-10-09T02:02:00.642Z,77.62
2022-10-09T02:04:30.202Z,77.54
2022-10-09T02:06:57.176Z,77.69
2022-10-09T02:09:26.450Z,78.04
2022-10-09T02:11:58.118Z,78.24
2022-10-09T02:14:24.915Z,76.89
2022-10-09T02:17:03.133Z,76.51
2022-10-09T02:19:35.087Z,76.90
2022-10-09T02:22:14.159Z,76.84
2022-10-09T02:24:42.624Z,76.71
2022-10-09T02:27:11.318Z,77.21
2022-10-09T02:29:43.335Z,77.02
2022-10-09T02:32:11.149Z,76.87
2022-10-09T02:34:38.281Z,77.45
2022-10-09T02:37:05.987Z,77.81
2022-10-09T02:39:33.065Z,78.42
2022-10-09T02:41:59.927Z,78.27
2022-10-09T02:44:27.071Z,77.84
2022-10-09T02:46:53.863Z,78.02
2022-10-09T02:49:30.059Z,78.69
2022-10-09T02:51:58.030Z,79.43
2022-10-09T02:54:24.778Z,78.41
2022-10-09T02:56:51.529Z,78.65
2022-10-09T02:59:18.347Z,78.72
2022-10-09T03:01:45.216Z,78.56
2022-10-09T03:04:12.156Z,78.31
2022-10-09T03:06:38.991Z,77.96
2022-10-09T03:09:05.985Z,78.58
2022-10-09T03:11:32.743Z,78.77
2022-10-09T03:13:59.609Z,78.54
2022-10-09T03:16:27.041Z,78.54
2022-10-09T03:18:54.401Z,78.49
2022-10-09T03:21:24.253Z,78.93
2022-10-09T03:23:51.342Z,78.09
2022-10-09T03:26:21.534Z,78.50
2022-10-09T03:28:50.269Z,78.32
2022-10-09T03:31:46.532Z,78.61
2022-10-09T03:34:05.583Z,77.97
2022-10-09T03:36:32.477Z,77.94
2022-10-09T03:39:00.259Z,77.97
2022-10-09T03:41:27.172Z,78.06
2022-10-09T03:43:53.905Z,78.09
2022-10-09T03:46:20.934Z,78.30
2022-10-09T03:48:47.794Z,78.21
2022-10-09T03:51:14.495Z,78.60
2022-10-09T03:53:41.285Z,78.45
2022-10-09T03:56:08.019Z,78.30
2022-10-09T03:58:34.778Z,77.89
2022-10-09T04:01:01.948Z,78.38
2022-10-09T04:03:29.175Z,78.29
2022-10-09T04:05:55.965Z,77.81
2022-10-09T04:08:28.982Z,77.66
2022-10-09T04:11:00.012Z,77.60
2022-10-09T04:13:26.929Z,77.72
2022-10-09T04:15:55.067Z,78.34
2022-10-09T04:18:23.004Z,78.47
2022-10-09T04:20:51.534Z,78.33
2022-10-09T04:23:19.952Z,78.32
2022-10-09T04:25:47.120Z,78.62
2022-10-09T04:28:25.050Z,78.92
2022-10-09T04:30:52.336Z,78.79
2022-10-09T04:33:19.483Z,79.01
2022-10-09T04:35:50.188Z,78.80
2022-10-09T04:38:18.677Z,79.13
2022-10-09T04:40:46.270Z,79.63
2022-10-09T04:43:13.044Z,79.12
2022-10-09T04:45:40.732Z,79.43
2022-10-09T04:48:07.508Z,79.59
2022-10-09T04:50:34.307Z,80.97
2022-10-09T04:53:01.260Z,80.54
2022-10-09T04:55:28.009Z,79.95
2022-10-09T04:57:54.763Z,80.08
2022-10-09T05:00:21.562Z,79.78
2022-10-09T05:02:48.784Z,79.58
2022-10-09T05:05:15.768Z,78.67
2022-10-09T05:07:42.541Z,78.73
2022-10-09T05:10:09.448Z,78.94
2022-10-09T05:12:36.243Z,79.01
2022-10-09T05:15:03.176Z,78.98
2022-10-09T05:17:29.960Z,78.90
2022-10-09T05:19:56.921Z,78.83
2022-10-09T05:22:23.746Z,78.92
2022-10-09T05:24:50.504Z,78.78
2022-10-09T05:27:17.340Z,78.76
2022-10-09T05:29:44.077Z,78.54
2022-10-09T05:32:10.872Z,78.53
2022-10-09T05:34:37.702Z,78.55
2022-10-09T05:37:04.539Z,78.16
2022-10-09T05:39:32.637Z,78.91
2022-10-09T05:41:59.390Z,78.56
2022-10-09T05:44:26.189Z,79.05
2022-10-09T05:46:52.980Z,78.74
2022-10-09T05:49:19.765Z,78.75
2022-10-09T05:51:46.620Z,79.16
2022-10-09T05:54:15.785Z,79.44
2022-10-09T05:56:43.718Z,80.03
2022-10-09T05:59:15.445Z,79.63
2022-10-09T06:01:44.840Z,79.30
2022-10-09T06:04:17.272Z,79.33
2022-10-09T06:06:44.993Z,79.62
2022-10-09T06:09:12.085Z,79.45
2022-10-09T06:11:40.290Z,79.65
2022-10-09T06:14:08.966Z,79.87
2022-10-09T06:16:38.075Z,80.44
2022-10-09T06:19:06.789Z,80.28
2022-10-09T06:21:34.292Z,80.41
2022-10-09T06:24:03.014Z,81.08
2022-10-09T06:26:30.740Z,81.02
2022-10-09T06:28:59.368Z,80.67
2022-10-09T06:31:28.966Z,81.31
2022-10-09T06:33:56.158Z,81.08
2022-10-09T06:36:25.317Z,80.87
2022-10-09T06:38:53.386Z,80.94
2022-10-09T06:41:22.949Z,81.05
2022-10-09T06:44:01.132Z,80.73
2022-10-09T06:46:37.022Z,81.03
2022-10-09T06:49:04.878Z,81.71
2022-10-09T06:51:32.691Z,81.67
2022-10-09T06:54:02.518Z,81.81
2022-10-09T06:56:31.603Z,81.87
2022-10-09T06:59:03.111Z,82.04
2022-10-09T07:01:32.634Z,82.18
2022-10-09T07:04:05.902Z,82.13
2022-10-09T07:06:35.050Z,82.15
2022-10-09T07:09:05.127Z,82.54
2022-10-09T07:11:37.102Z,82.11
2022-10-09T07:14:06.697Z,81.91
2022-10-09T07:16:41.780Z,81.67
2022-10-09T07:19:11.557Z,82.01
2022-10-09T07:21:41.753Z,82.00
2022-10-09T07:24:09.165Z,81.91
2022-10-09T07:26:38.189Z,81.84
2022-10-09T07:29:07.192Z,81.94
2022-10-09T07:31:34.229Z,82.21
2022-10-09T07:34:02.024Z,82.25
2022-10-09T07:36:28.851Z,82.44
2022-10-09T07:38:57.412Z,82.39
2022-10-09T07:41:26.813Z,82.16
2022-10-09T07:43:53.690Z,82.28
2022-10-09T07:46:23.114Z,82.19
2022-10-09T07:48:51.059Z,81.99
2022-10-09T07:51:22.541Z,82.28
2022-10-09T07:53:50.150Z,82.34
2022-10-09T07:56:22.280Z,81.75
2022-10-09T07:58:51.637Z,81.51
2022-10-09T08:01:20.524Z,80.74
2022-10-09T08:03:48.209Z,80.02
2022-10-09T08:06:15.168Z,79.52
2022-10-09T08:08:42.147Z,79.35
2022-10-09T08:11:11.189Z,79.84
2022-10-09T08:13:38.730Z,79.60
2022-10-09T08:16:06.499Z,80.24
2022-10-09T08:18:34.069Z,80.16
2022-10-09T08:21:03.433Z,79.46
2022-10-09T08:23:30.414Z,79.76
2022-10-09T08:25:57.243Z,79.87
2022-10-09T08:28:24.414Z,79.04
2022-10-09T08:30:51.408Z,78.88
2022-10-09T08:33:23.540Z,79.19
2022-10-09T08:35:51.404Z,79.60
2022-10-09T08:38:46.202Z,79.68
2022-10-09T08:41:49.854Z,80.07
2022-10-09T08:44:22.434Z,80.07
2022-10-09T08:47:08.288Z,79.69
2022-10-09T08:49:49.857Z,79.92
2022-10-09T08:52:36.971Z,79.90
2022-10-09T08:55:13.808Z,80.14
2022-10-09T08:57:40.656Z,80.31
2022-10-09T09:00:15.337Z,79.72
2022-10-09T09:03:03.507Z,79.14
2022-10-09T09:05:55.801Z,78.69
2022-10-09T09:08:55.556Z,77.90
2022-10-09T09:11:25.158Z,78.05
2022-10-09T09:14:10.853Z,81.61
2022-10-09T09:16:56.266Z,79.37
2022-10-09T09:19:34.831Z,79.44
2022-10-09T09:22:02.292Z,78.38
2022-10-09T09:24:38.447Z,77.19
2022-10-09T09:27:13.976Z,76.31
2022-10-09T09:29:48.896Z,75.45
2022-10-09T09:32:20.834Z,75.25
2022-10-09T09:34:47.807Z,74.90
2022-10-09T09:37:15.632Z,74.96
2022-10-09T09:42:33.051Z,75.13
2022-10-09T09:45:04.332Z,73.43
2022-10-09T09:47:40.625Z,72.15
2022-10-09T09:50:18.502Z,72.42
2022-10-09T09:52:55.930Z,72.52
2022-10-09T09:55:31.145Z,71.91
2022-10-09T09:58:04.324Z,71.03
2022-10-09T10:00:32.594Z,70.65
2022-10-09T10:03:18.478Z,70.89
2022-10-09T10:05:45.606Z,69.75
2022-10-09T10:08:36.546Z,69.71
2022-10-09T10:11:09.223Z,69.05
2022-10-09T10:13:47.215Z,69.16
2022-10-09T10:16:24.963Z,68.03
2022-10-09T10:18:53.459Z,69.97
2022-10-09T10:21:20.778Z,72.01
2022-10-09T10:23:58.807Z,70.17
2022-10-09T10:26:58.554Z,68.96
2022-10-09T10:29:46.858Z,69.04
2022-10-09T10:32:32.535Z,68.66
2022-10-09T10:35:01.925Z,68.55
2022-10-09T10:37:38.892Z,68.70
2022-10-09T10:40:26.640Z,67.97
2022-10-09T10:43:11.654Z,67.34
2022-10-09T10:45:44.047Z,67.65
2022-10-09T10:48:33.775Z,67.32
2022-10-09T10:51:25.328Z,67.21
2022-10-09T10:54:16.734Z,66.79
2022-10-09T10:56:49.360Z,66.68
2022-10-09T10:59:39.990Z,67.39
2022-10-09T11:02:21.808Z,68.04
2022-10-09T11:05:00.637Z,67.05
2022-10-09T11:07:42.149Z,66.89
2022-10-09T11:10:24.211Z,66.64
2022-10-09T11:13:01.453Z,66.78
2022-10-09T11:15:38.451Z,67.88
2022-10-09T11:18:43.093Z,67.95
2022-10-09T11:21:15.830Z,66.73
2022-10-09T11:23:56.741Z,65.91
2022-10-09T11:26:36.860Z,64.83
2022-10-09T11:29:18.733Z,63.74
2022-10-09T11:31:59.084Z,62.48
2022-10-09T11:34:36.245Z,61.86
2022-10-09T11:37:09.158Z,61.31
2022-10-09T11:39:38.107Z,60.78
2022-10-09T11:42:06.186Z,60.29
2022-10-09T11:44:32.924Z,60.95
2022-10-09T11:47:32.101Z,60.47
2022-10-09T11:50:32.437Z,59.01
2022-10-09T11:53:12.093Z,59.30
2022-10-09T11:55:39.270Z,59.48
2022-10-09T11:58:29.386Z,59.24
2022-10-09T12:01:22.485Z,59.18
2022-10-09T12:04:05.206Z,59.29
2022-10-09T12:06:33.389Z,58.02
2022-10-09T12:09:08.478Z,58.62
2022-10-09T12:11:35.690Z,58.70
2022-10-09T12:14:06.065Z,57.94
2022-10-09T12:16:45.807Z,57.90
2022-10-09T12:19:20.712Z,58.19
2022-10-09T12:21:52.017Z,57.20
2022-10-09T12:24:26.511Z,58.40
2022-10-09T12:26:57.059Z,57.53
2022-10-09T12:29:27.928Z,57.66
2022-10-09T12:31:59.215Z,57.99
2022-10-09T12:34:38.057Z,57.56
2022-10-09T12:37:12.486Z,57.16
2022-10-09T12:39:51.124Z,56.89
2022-10-09T12:42:23.220Z,56.47
2022-10-09T12:44:54.230Z,56.07
2022-10-09T12:47:29.532Z,55.74
2022-10-09T12:49:57.882Z,55.54
2022-10-09T12:52:48.689Z,55.65
2022-10-09T12:55:31.586Z,56.54
2022-10-09T12:58:03.636Z,55.81
2022-10-09T13:00:32.702Z,54.70
2022-10-09T13:02:59.831Z,54.58
2022-10-09T13:05:41.047Z,55.13
2022-10-09T13:08:35.191Z,55.06
2022-10-09T13:11:13.076Z,55.42
2022-10-09T13:13:40.352Z,53.89
2022-10-09T13:16:09.738Z,54.18
2022-10-09T13:18:38.299Z,54.39
2022-10-09T13:21:25.085Z,54.83
2022-10-09T13:23:51.878Z,55.47
2022-10-09T13:26:28.019Z,55.22
2022-10-09T13:28:56.541Z,55.06
2022-10-09T13:31:23.441Z,55.15
2022-10-09T13:33:50.723Z,54.42
2022-10-09T13:36:19.575Z,53.54
2022-10-09T13:38:47.926Z,53.55
2022-10-09T13:41:22.388Z,52.90
2022-10-09T13:43:51.061Z,52.54
2022-10-09T13:46:18.006Z,52.51
2022-10-09T13:48:44.980Z,52.69
2022-10-09T13:51:12.122Z,53.69
2022-10-09T13:53:39.267Z,54.47
2022-10-09T13:56:07.938Z,52.37
2022-10-09T13:58:34.685Z,51.91
2022-10-09T14:01:01.591Z,51.36
2022-10-09T14:03:28.539Z,51.12
2022-10-09T14:06:00.128Z,50.34
2022-10-09T14:08:34.203Z,51.13
2022-10-09T14:11:15.141Z,50.61
2022-10-09T14:13:41.988Z,51.17
2022-10-09T14:16:11.266Z,51.44
2022-10-09T14:18:38.064Z,51.86
2022-10-09T14:21:15.321Z,52.79
2022-10-09T14:23:43.287Z,52.23
2022-10-09T14:26:10.094Z,51.94
2022-10-09T14:28:37.570Z,51.53
2022-10-09T14:31:17.987Z,51.64
2022-10-09T14:33:46.153Z,51.81
2022-10-09T14:36:16.261Z,52.99
2022-10-09T14:38:43.131Z,52.28
2022-10-09T14:41:10.537Z,51.96
2022-10-09T14:43:37.339Z,52.25
2022-10-09T14:46:05.050Z,52.22
2022-10-09T14:48:34.998Z,52.03
2022-10-09T14:51:07.214Z,51.89
2022-10-09T14:53:34.371Z,52.72
2022-10-09T14:56:06.211Z,51.98
2022-10-09T14:58:35.013Z,52.05
2022-10-09T15:01:02.433Z,52.96
2022-10-09T15:03:30.759Z,52.21
2022-10-09T15:06:06.089Z,51.63
2022-10-09T15:08:35.967Z,50.94
2022-10-09T15:11:03.281Z,51.22
2022-10-09T15:13:32.030Z,51.28
2022-10-09T15:16:03.661Z,51.43
2022-10-09T15:18:31.842Z,51.14
2022-10-09T15:20:59.948Z,51.08
2022-10-09T15:23:30.742Z,51.63
2022-10-09T15:25:59.579Z,51.33
2022-10-09T15:28:35.853Z,50.81
2022-10-09T15:31:19.986Z,51.39
2022-10-09T15:33:46.769Z,50.89
2022-10-09T15:36:13.505Z,51.19
2022-10-09T15:38:40.637Z,52.51
2022-10-09T15:41:07.455Z,51.46
2022-10-09T15:43:37.654Z,50.89
2022-10-09T15:46:07.284Z,49.55
2022-10-09T15:48:35.183Z,49.29
2022-10-09T15:51:07.178Z,48.86
2022-10-09T15:53:33.973Z,49.28
2022-10-09T15:56:05.543Z,49.81
2022-10-09T15:58:32.818Z,48.82
2022-10-09T16:01:07.024Z,48.95
2022-10-09T16:03:37.137Z,50.03
2022-10-09T16:06:07.514Z,50.85
2022-10-09T16:08:34.776Z,51.21
2022-10-09T16:11:05.854Z,52.28
2022-10-09T16:13:35.141Z,52.73
2022-10-09T16:16:05.643Z,52.25
2022-10-09T16:18:33.017Z,54.12
2022-10-09T16:21:07.720Z,56.67
2022-10-09T16:23:35.012Z,55.56
2022-10-09T16:26:04.242Z,55.26
2022-10-09T16:28:31.450Z,55.42
2022-10-09T16:30:58.517Z,54.27
2022-10-09T16:33:25.772Z,56.01
2022-10-09T16:35:52.560Z,55.27
2022-10-09T16:38:28.774Z,55.19
2022-10-09T16:41:02.926Z,53.87
2022-10-09T16:43:33.997Z,53.85
2022-10-09T16:46:16.932Z,54.90
2022-10-09T16:48:44.356Z,54.93
2022-10-09T16:51:17.145Z,54.55
2022-10-09T16:53:44.062Z,54.86
2022-10-09T16:56:16.283Z,56.22
2022-10-09T16:58:44.164Z,56.97
2022-10-09T17:01:12.109Z,55.98
2022-10-09T17:03:41.385Z,53.93
2022-10-09T17:06:10.459Z,53.51
2022-10-09T17:08:37.569Z,52.76
2022-10-09T17:11:09.420Z,53.40
2022-10-09T17:13:37.251Z,52.62
2022-10-09T17:16:18.457Z,52.70
2022-10-09T17:18:46.551Z,53.19
2022-10-09T17:21:14.404Z,52.15
2022-10-09T17:23:41.730Z,51.56
2022-10-09T17:26:11.956Z,52.53
2022-10-09T17:28:40.194Z,52.09
2022-10-09T17:31:09.641Z,52.60
2022-10-09T17:33:41.261Z,51.84
2022-10-09T17:36:09.108Z,52.48
2022-10-09T17:38:36.275Z,53.11
2022-10-09T17:41:07.931Z,52.35
2022-10-09T17:43:34.868Z,53.00
2022-10-09T17:46:01.815Z,53.40
2022-10-09T17:48:29.338Z,53.58
2022-10-09T17:50:58.058Z,54.43
2022-10-09T17:53:25.268Z,54.10
2022-10-09T17:55:54.161Z,53.94
2022-10-09T17:58:26.355Z,54.59
2022-10-09T18:00:53.193Z,55.46
2022-10-09T18:03:20.700Z,55.69
2022-10-09T18:05:49.372Z,55.80
2022-10-09T18:08:20.205Z,56.54
2022-10-09T18:10:47.206Z,55.74
2022-10-09T18:13:14.394Z,56.13
2022-10-09T18:15:43.365Z,57.35
2022-10-09T18:18:20.347Z,57.75
2022-10-09T18:20:47.374Z,57.61
2022-10-09T18:23:14.298Z,58.09
2022-10-09T18:25:42.973Z,59.21
2022-10-09T18:28:11.101Z,59.36
2022-10-09T18:30:46.450Z,59.00
2022-10-09T18:33:13.268Z,59.18
2022-10-09T18:35:40.279Z,59.46
2022-10-09T18:38:15.591Z,60.10
2022-10-09T18:40:45.858Z,60.94
2022-10-09T18:43:12.989Z,60.85
2022-10-09T18:45:45.975Z,60.88
2022-10-09T18:48:23.511Z,61.26
2022-10-09T18:50:50.446Z,61.50
2022-10-09T18:53:17.359Z,61.50
2022-10-09T18:55:44.451Z,62.38
2022-10-09T18:58:12.832Z,62.29
2022-10-09T19:00:40.331Z,62.70
2022-10-09T19:03:07.437Z,63.27
2022-10-09T19:05:34.393Z,63.37
2022-10-09T19:08:01.165Z,63.97
2022-10-09T19:10:28.085Z,64.91
2022-10-09T19:12:55.355Z,65.21
2022-10-09T19:15:22.520Z,65.36
2022-10-09T19:17:49.775Z,65.46
2022-10-09T19:20:16.738Z,65.70
2022-10-09T19:22:43.558Z,66.13
2022-10-09T19:25:11.086Z,66.81
2022-10-09T19:27:38.115Z,66.19
2022-10-09T19:30:05.851Z,66.58
2022-10-09T19:32:32.584Z,66.99
2022-10-09T19:34:59.428Z,67.18
2022-10-09T19:37:29.608Z,67.98
2022-10-09T19:39:57.469Z,68.11
2022-10-09T19:42:25.020Z,68.03
2022-10-09T19:44:51.816Z,68.55
2022-10-09T19:47:19.555Z,68.75
2022-10-09T19:49:46.462Z,69.10
2022-10-09T19:52:13.401Z,69.55
2022-10-09T19:54:40.464Z,70.10
2022-10-09T19:57:07.440Z,70.06
2022-10-09T19:59:34.242Z,70.18
2022-10-09T20:02:01.020Z,70.41
2022-10-09T20:04:27.983Z,69.95
2022-10-09T20:06:54.764Z,70.42
2022-10-09T20:09:21.681Z,70.73
2022-10-09T20:11:48.767Z,71.05
2022-10-09T20:14:15.631Z,71.12
2022-10-09T20:16:42.532Z,71.41
2022-10-09T20:19:09.357Z,71.66
2022-10-09T20:21:36.206Z,71.17
2022-10-09T20:24:03.117Z,71.27
2022-10-09T20:26:31.675Z,71.84
2022-10-09T20:28:58.986Z,71.99
2022-10-09T20:31:27.145Z,72.13
2022-10-09T20:33:55.877Z,72.57
2022-10-09T20:36:35.449Z,72.69
2022-10-09T20:39:05.696Z,72.66
2022-10-09T20:41:33.337Z,72.62
2022-10-09T20:44:01.803Z,73.05
2022-10-09T20:46:31.249Z,73.09
2022-10-09T20:48:58.178Z,73.50
2022-10-09T20:51:26.121Z,73.17
2022-10-09T20:53:58.758Z,73.24
2022-10-09T20:56:29.078Z,73.16
2022-10-09T20:58:57.262Z,73.33
2022-10-09T21:01:24.287Z,73.43
2022-10-09T21:03:52.139Z,73.22
2022-10-09T21:06:21.154Z,73.42
2022-10-09T21:08:48.378Z,73.75
2022-10-09T21:11:17.393Z,74.14
2022-10-09T21:13:45.796Z,74.48
2022-10-09T21:16:15.669Z,74.86
2022-10-09T21:18:42.456Z,74.96
2022-10-09T21:21:15.579Z,75.08
2022-10-09T21:23:43.857Z,74.67
2022-10-09T21:26:17.752Z,74.51
2022-10-09T21:28:44.802Z,74.75
2022-10-09T21:31:15.157Z,74.93
2022-10-09T21:33:41.910Z,75.24
2022-10-09T21:36:19.747Z,75.07
2022-10-09T21:38:46.568Z,75.00
2022-10-09T21:41:13.516Z,75.32
2022-10-09T21:43:40.315Z,75.58
2022-10-09T21:46:07.086Z,75.70
2022-10-09T21:48:33.899Z,75.13
2022-10-09T21:51:00.762Z,75.15
2022-10-09T21:53:27.638Z,75.15
2022-10-09T21:55:54.436Z,75.45
2022-10-09T21:58:23.842Z,75.51
2022-10-09T22:01:01.786Z,76.21
2022-10-09T22:03:31.504Z,76.82
2022-10-09T22:05:59.632Z,76.29
2022-10-09T22:08:27.655Z,76.37
2022-10-09T22:10:54.456Z,76.45
2022-10-09T22:13:21.929Z,76.55
2022-10-09T22:15:51.301Z,76.95
2022-10-09T22:18:20.365Z,77.49
2022-10-09T22:20:50.276Z,76.81
2022-10-09T22:23:21.263Z,76.96
2022-10-09T22:25:59.262Z,77.48
2022-10-09T22:28:26.718Z,77.01
2022-10-09T22:31:08.916Z,77.36
2022-10-09T22:33:36.178Z,77.90
2022-10-09T22:36:15.711Z,78.25
2022-10-09T22:38:44.071Z,77.76
2022-10-09T22:41:14.144Z,76.97
2022-10-09T22:43:42.009Z,77.36
2022-10-09T22:46:18.912Z,78.04
2022-10-09T22:48:46.105Z,78.45
2022-10-09T22:51:15.996Z,78.47
2022-10-09T22:53:44.308Z,78.60
2022-10-09T22:56:17.302Z,78.64
2022-10-09T22:58:44.768Z,78.92
2022-10-09T23:01:19.195Z,79.29
2022-10-09T23:03:46.013Z,79.32
2022-10-09T23:06:16.069Z,80.15
2022-10-09T23:08:45.152Z,80.17
2022-10-09T23:11:13.078Z,79.76
2022-10-09T23:13:40.085Z,79.32
2022-10-09T23:16:09.756Z,79.24
2022-10-09T23:18:36.540Z,79.58
2022-10-09T23:21:05.351Z,79.34
2022-10-09T23:23:34.164Z,79.75
2022-10-09T23:26:13.631Z,79.23
2022-10-09T23:28:41.494Z,79.07
2022-10-09T23:31:13.227Z,79.29
2022-10-09T23:33:41.513Z,80.07
2022-10-09T23:36:09.963Z,80.20
2022-10-09T23:38:37.435Z,80.08
2022-10-09T23:41:08.214Z,80.01
2022-10-09T23:43:37.149Z,80.43
2022-10-09T23:46:06.333Z,80.26
2022-10-09T23:48:34.337Z,80.22
2022-10-09T23:51:01.450Z,80.43
2022-10-09T23:53:28.817Z,80.85
2022-10-09T23:55:55.633Z,80.59
2022-10-09T23:58:26.374Z,80.69
